Nearby METAR Reports

 

KHOT - Hot Springs, Arkansas, USA
Distance from station: W 8mi, 14km
Updated: 08/05/2021 6:53pm
Overcast
Overcast
 Wind from SSE
Wind: SSE 5 mph , 7 km/h
Temperature: 84°F , 29°C
Heat Index: 85°F , 29°C
Dew Point: 64°F , 18°C
Humidity: 51%
Barometer: 30.05 inHg , 1017.6 hPa
Clouds: Overcast
Visibility: 9 miles , 14 km
Cloud details: Overcast 6000 ft
2021/08/05 23:53 KHOT 052353Z AUTO 16004KT 9SM OVC060 29/18 A3005 RMK AO2 SLP171 T02940183 10317 20294 55001 $
KMWT - Mount Ida, Arkansas, USA
Distance from station: W 36mi, 58km
Updated: 08/05/2021 6:53pm
Clear
Clear
 Wind from calm
Wind: Calm
Temperature: 79°F , 26°C
Dew Point: 72°F , 22°C
Humidity: 79%
Barometer: 30.05 inHg , 1017.6 hPa
Clouds: Clear
Visibility: 10 miles , 16 km
2021/08/05 23:53 KMWT 052353Z AUTO 00000KT 10SM CLR 26/22 A3005 RMK AO2 SLP165 T02610217 10306 20261 55002
 
KLIT - Little Rock, Arkansas, USA
Distance from station: ENE 45mi, 73km
Updated: 08/05/2021 6:53pm
Mostly cloudy
Mostly cloudy
 Wind from SE
Wind: SE 8 mph , 13 km/h
Temperature: 84°F , 29°C
Heat Index: 85°F , 29°C
Dew Point: 63°F , 17°C
Humidity: 48%
Barometer: 30.05 inHg , 1017.6 hPa
Clouds: Mostly cloudy
Visibility: 10 miles , 16 km
Cloud details: Few Clouds 6000 ft
Mostly cloudy 25000 ft
2021/08/05 23:53 KLIT 052353Z 14007KT 10SM FEW060 BKN250 29/17 A3005 RMK AO2 SLP175 T02890167 10311 20289 55000
KLRF - Little Rock Afb, Arkansas, USA
Distance from station: NE 56mi, 89km
Updated: 08/05/2021 6:56pm
Clear
Clear
 Wind from SE
Wind: SE 8 mph , 13 km/h
Temperature: 86°F , 30°C
Heat Index: 88°F , 31°C
Dew Point: 64°F , 18°C
Humidity: 49%
Barometer: 30.04 inHg , 1017.3 hPa
Clouds: Clear
Visibility: 10 miles , 16 km
2021/08/05 23:56 KLRF 052356Z AUTO 13007KT 10SM CLR 30/18 A3004 RMK AO2 SLP173 T02980176 10318 20298 53000 $